| time (UTC) | temp C | wind direction | speed KPH | gust KPH | rain 1hr cm | rain 24hr cm | rain mn cm | humidity % | barometer mb |
| 20260507154644 | 30 | 310 | 9.7 | 12.9 | 0.00 | 0.00 | 0.00 | 76 | 1012.8 |
| 20260507154142 | 30 | 309 | 8.0 | 11.3 | 0.00 | 0.00 | 0.00 | 77 | 1012.9 |
| 20260507153638 | 30 | 322 | 6.4 | 6.4 | 0.00 | 0.00 | 0.00 | 76 | 1012.8 |
| 20260507153135 | 30 | 173 | 6.4 | 6.4 | 0.00 | 0.00 | 0.00 | 76 | 1012.8 |
| 20260507152631 | 30 | 272 | 6.4 | 9.7 | 0.00 | 0.00 | 0.00 | 76 | 1012.6 |
| 20260507152127 | 30 | 274 | 6.4 | 11.3 | 0.00 | 0.00 | 0.00 | 77 | 1012.7 |
| 20260507151623 | 30 | 308 | 3.2 | 3.2 | 0.00 | 0.00 | 0.00 | 77 | 1012.8 |
| 20260507151120 | 30 | 166 | 6.4 | 9.7 | 0.00 | 0.00 | 0.00 | 78 | 1012.7 |
| 20260507150618 | 30 | 346 | 4.8 | 9.7 | 0.00 | 0.00 | 0.00 | 77 | 1012.7 |
| 20260507150114 | 30 | 355 | 4.8 | 9.7 | 0.00 | 0.00 | 0.00 | 76 | 1012.8 |
| 20260507145614 | 30 | 338 | 14.5 | 14.5 | 0.00 | 0.00 | 0.00 | 76 | 1012.7 |
| 20260507145113 | 30 | 327 | 6.4 | 12.9 | 0.00 | 0.00 | 0.00 | 77 | 1012.6 |
| 20260507144608 | 30 | 330 | 8.0 | 12.9 | 0.00 | 0.00 | 0.00 | 77 | 1012.6 |
| 20260507144107 | 30 | 318 | 11.3 | 14.5 | 0.00 | 0.00 | 0.00 | 78 | 1012.6 |
| 20260507143603 | 30 | 12 | 6.4 | 11.3 | 0.00 | 0.00 | 0.00 | 77 | 1012.7 |
| 20260507143101 | 30 | 356 | 11.3 | 12.9 | 0.00 | 0.00 | 0.00 | 78 | 1012.6 |
| 20260507142601 | 30 | 316 | 6.4 | 9.7 | 0.00 | 0.00 | 0.00 | 78 | 1012.7 |
| 20260507142058 | 30 | 280 | 9.7 | 12.9 | 0.00 | 0.00 | 0.00 | 77 | 1012.6 |
| 20260507141554 | 30 | 28 | 8.0 | 11.3 | 0.00 | 0.00 | 0.00 | 78 | 1012.6 |
| 20260507141051 | 30 | 317 | 8.0 | 9.7 | 0.00 | 0.00 | 0.00 | 77 | 1012.6 |
| 20260507140548 | 30 | 12 | 1.6 | 3.2 | 0.00 | 0.00 | 0.00 | 78 | 1012.6 |
| 20260507140045 | 30 | 335 | 12.9 | 14.5 | 0.00 | 0.00 | 0.00 | 77 | 1012.6 |
| 20260507135542 | 29 | 320 | 8.0 | 11.3 | 0.00 | 0.00 | 0.00 | 78 | 1012.5 |
| 20260507135039 | 29 | 45 | 6.4 | 11.3 | 0.00 | 0.00 | 0.00 | 78 | 1012.3 |
| 20260507134536 | 29 | 288 | 9.7 | 12.9 | 0.00 | 0.00 | 0.00 | 78 | 1012.3 |
| 20260507134031 | 30 | 36 | 8.0 | 11.3 | 0.00 | 0.00 | 0.00 | 78 | 1012.3 |
| 20260507133528 | 29 | 17 | 6.4 | 11.3 | 0.00 | 0.00 | 0.00 | 78 | 1012.2 |
| 20260507133026 | 29 | 280 | 9.7 | 12.9 | 0.00 | 0.00 | 0.00 | 78 | 1012.3 |
| 20260507132522 | 29 | 335 | 6.4 | 12.9 | 0.00 | 0.00 | 0.00 | 79 | 1012.1 |
| 20260507132019 | 29 | 306 | 4.8 | 9.7 | 0.00 | 0.00 | 0.00 | 80 | 1012.1 |
| 20260507131516 | 29 | 351 | 11.3 | 14.5 | 0.00 | 0.00 | 0.00 | 80 | 1012.2 |
| 20260507131013 | 29 | 300 | 9.7 | 14.5 | 0.00 | 0.00 | 0.00 | 80 | 1012.2 |
| 20260507130510 | 28 | 359 | 6.4 | 12.9 | 0.00 | 0.00 | 0.00 | 80 | 1012.0 |
| 20260507130008 | 28 | 323 | 12.9 | 14.5 | 0.00 | 0.00 | 0.00 | 81 | 1012.0 |
| 20260507125506 | 28 | 305 | 6.4 | 9.7 | 0.00 | 0.00 | 0.00 | 81 | 1012.0 |
| 20260507125003 | 28 | 272 | 8.0 | 12.9 | 0.00 | 0.00 | 0.00 | 81 | 1012.0 |
| 20260507124459 | 28 | 102 | 6.4 | 9.7 | 0.00 | 0.00 | 0.00 | 81 | 1012.0 |
| 20260507123957 | 28 | 291 | 8.0 | 12.9 | 0.00 | 0.00 | 0.00 | 82 | 1012.0 |
| 20260507123455 | 28 | 309 | 9.7 | 12.9 | 0.00 | 0.00 | 0.00 | 83 | 1011.8 |
| 20260507122951 | 28 | 254 | 6.4 | 11.3 | 0.00 | 0.00 | 0.00 | 83 | 1011.7 |
| 20260507122447 | 28 | 73 | 3.2 | 4.8 | 0.00 | 0.00 | 0.00 | 83 | 1011.8 |
| 20260507121943 | 28 | 8 | 3.2 | 6.4 | 0.00 | 0.00 | 0.00 | 83 | 1011.6 |
| 20260507121438 | 28 | 290 | 4.8 | 9.7 | 0.00 | 0.00 | 0.00 | 84 | 1011.7 |
| 20260507120935 | 27 | 55 | 4.8 | 9.7 | 0.00 | 0.00 | 0.00 | 84 | 1011.5 |
| 20260507120431 | 27 | 338 | 6.4 | 9.7 | 0.00 | 0.00 | 0.00 | 84 | 1011.6 |
| 20260507115928 | 27 | 326 | 3.2 | 3.2 | 0.00 | 0.00 | 0.00 | 84 | 1011.7 |
| 20260507115424 | 27 | 326 | 9.7 | 12.9 | 0.00 | 0.00 | 0.00 | 84 | 1011.7 |
| 20260507114920 | 27 | 35 | 4.8 | 4.8 | 0.00 | 0.00 | 0.00 | 85 | 1011.6 |
| 20260507114417 | 27 | 349 | 3.2 | 3.2 | 0.00 | 0.00 | 0.00 | 85 | 1011.6 |
| 20260507113914 | 27 | 322 | 6.4 | 6.4 | 0.00 | 0.00 | 0.00 | 85 | 1011.6 |
| 20260507113411 | 27 | 319 | 8.0 | 9.7 | 0.00 | 0.00 | 0.00 | 85 | 1011.6 |
| 20260507112908 | 27 | 322 | 9.7 | 12.9 | 0.00 | 0.00 | 0.00 | 85 | 1011.5 |
| 20260507112406 | 27 | 289 | 4.8 | 4.8 | 0.00 | 0.00 | 0.00 | 85 | 1011.3 |
| 20260507111904 | 27 | 327 | 8.0 | 9.7 | 0.00 | 0.00 | 0.00 | 85 | 1011.1 |
| 20260507111400 | 27 | 2 | 8.0 | 11.3 | 0.00 | 0.00 | 0.00 | 86 | 1011.1 |
| 20260507110856 | 27 | 319 | 9.7 | 12.9 | 0.00 | 0.00 | 0.00 | 86 | 1011.1 |
| 20260507110352 | 27 | 350 | 4.8 | 6.4 | 0.00 | 0.00 | 0.00 | 85 | 1011.2 |
| 20260507105849 | 27 | 326 | 8.0 | 11.3 | 0.00 | 0.00 | 0.00 | 85 | 1011.0 |
| 20260507105346 | 27 | 286 | 1.6 | 1.6 | 0.00 | 0.00 | 0.00 | 86 | 1011.0 |
| 20260507104842 | 27 | 45 | 3.2 | 4.8 | 0.00 | 0.00 | 0.00 | 86 | 1010.9 |
| 20260507104339 | 27 | 335 | 6.4 | 9.7 | 0.00 | 0.00 | 0.00 | 86 | 1010.8 |
| 20260507103835 | 27 | 301 | 4.8 | 9.7 | 0.00 | 0.00 | 0.00 | 86 | 1010.8 |
| 20260507103332 | 27 | 148 | 3.2 | 3.2 | 0.00 | 0.00 | 0.00 | 86 | 1010.9 |
| 20260507102828 | 27 | 232 | 3.2 | 6.4 | 0.00 | 0.00 | 0.00 | 85 | 1010.6 |
| 20260507102325 | 27 | 279 | 3.2 | 3.2 | 0.00 | 0.00 | 0.00 | 85 | 1010.6 |
| 20260507101822 | 27 | 270 | 1.6 | 4.8 | 0.00 | 0.00 | 0.00 | 85 | 1010.7 |
| 20260507101322 | 27 | 60 | 1.6 | 3.2 | 0.00 | 0.00 | 0.00 | 85 | 1010.5 |
| 20260507100819 | 27 | 327 | 9.7 | 11.3 | 0.00 | 0.00 | 0.00 | 85 | 1010.4 |
| 20260507100317 | 27 | 289 | 4.8 | 6.4 | 0.00 | 0.00 | 0.00 | 85 | 1010.7 |
| 20260507095815 | 27 | 321 | 8.0 | 11.3 | 0.00 | 0.00 | 0.00 | 85 | 1010.5 |
| 20260507095311 | 27 | 50 | 8.0 | 11.3 | 0.00 | 0.00 | 0.00 | 85 | 1010.4 |
| 20260507094808 | 27 | 260 | 11.3 | 16.1 | 0.00 | 0.00 | 0.00 | 85 | 1010.5 |
| 20260507094305 | 27 | 283 | 3.2 | 6.4 | 0.00 | 0.00 | 0.00 | 86 | 1010.3 |
| 20260507093802 | 27 | 330 | 8.0 | 12.9 | 0.00 | 0.00 | 0.00 | 86 | 1010.4 |
| 20260507093300 | 27 | 4 | 9.7 | 14.5 | 0.00 | 0.00 | 0.00 | 86 | 1010.6 |
| 20260507092758 | 27 | 320 | 9.7 | 12.9 | 0.00 | 0.00 | 0.00 | 86 | 1010.5 |
| 20260507092254 | 27 | 347 | 11.3 | 14.5 | 0.00 | 0.00 | 0.00 | 86 | 1010.5 |
| 20260507091750 | 27 | 19 | 4.8 | 9.7 | 0.00 | 0.00 | 0.00 | 86 | 1010.4 |
| 20260507091247 | 27 | 17 | 4.8 | 4.8 | 0.00 | 0.00 | 0.00 | 86 | 1010.4 |
| 20260507090747 | 27 | 131 | 3.2 | 4.8 | 0.00 | 0.00 | 0.00 | 86 | 1010.3 |
| 20260507090244 | 27 | 13 | 3.2 | 3.2 | 0.00 | 0.00 | 0.00 | 86 | 1010.3 |
| 20260507085741 | 27 | 86 | 6.4 | 9.7 | 0.00 | 0.00 | 0.00 | 86 | 1010.3 |
| 20260507085238 | 27 | 358 | 8.0 | 12.9 | 0.00 | 0.00 | 0.00 | 87 | 1010.4 |
| 20260507084735 | 27 | 308 | 4.8 | 6.4 | 0.00 | 0.00 | 0.00 | 87 | 1010.3 |
| 20260507084232 | 27 | 71 | 3.2 | 6.4 | 0.00 | 0.00 | 0.00 | 87 | 1010.6 |
| 20260507083730 | 27 | 328 | 4.8 | 6.4 | 0.00 | 0.00 | 0.00 | 87 | 1010.5 |
| 20260507083226 | 27 | 222 | 4.8 | 4.8 | 0.00 | 0.00 | 0.00 | 87 | 1010.5 |
| 20260507082722 | 27 | 6 | 6.4 | 9.7 | 0.00 | 0.00 | 0.00 | 87 | 1010.5 |
| 20260507082218 | 27 | 44 | 6.4 | 9.7 | 0.00 | 0.00 | 0.00 | 87 | 1010.3 |
| 20260507081715 | 27 | 316 | 8.0 | 14.5 | 0.00 | 0.00 | 0.00 | 87 | 1010.4 |
| 20260507081211 | 27 | 73 | 6.4 | 9.7 | 0.00 | 0.00 | 0.00 | 87 | 1010.6 |
| 20260507080708 | 27 | 353 | 6.4 | 11.3 | 0.00 | 0.00 | 0.00 | 87 | 1010.7 |
| 20260507080204 | 27 | 303 | 6.4 | 11.3 | 0.00 | 0.00 | 0.00 | 87 | 1010.7 |
| 20260507075659 | 27 | 151 | 6.4 | 11.3 | 0.00 | 0.00 | 0.00 | 87 | 1010.7 |
| 20260507075156 | 27 | 244 | 8.0 | 11.3 | 0.00 | 0.00 | 0.00 | 87 | 1010.9 |
| 20260507074652 | 27 | 302 | 8.0 | 9.7 | 0.00 | 0.00 | 0.00 | 87 | 1010.7 |
| 20260507074151 | 27 | 327 | 6.4 | 9.7 | 0.00 | 0.00 | 0.00 | 87 | 1010.9 |
| 20260507073647 | 27 | 252 | 4.8 | 6.4 | 0.00 | 0.00 | 0.00 | 87 | 1010.9 |
| 20260507073143 | 27 | 34 | 3.2 | 4.8 | 0.00 | 0.00 | 0.00 | 86 | 1010.7 |
| 20260507072641 | 27 | 333 | 3.2 | 6.4 | 0.00 | 0.00 | 0.00 | 86 | 1010.7 |
| 20260507072138 | 27 | 288 | 3.2 | 4.8 | 0.00 | 0.00 | 0.00 | 86 | 1010.8 |
| 20260507071636 | 27 | 348 | 11.3 | 22.5 | 0.00 | 0.00 | 0.00 | 86 | 1011.0 |
| 20260507071132 | 27 | 43 | 9.7 | 16.1 | 0.00 | 0.00 | 0.00 | 86 | 1010.8 |
| 20260507070629 | 27 | 298 | 9.7 | 11.3 | 0.00 | 0.00 | 0.00 | 86 | 1011.1 |
| 20260507070126 | 27 | 76 | 6.4 | 9.7 | 0.00 | 0.00 | 0.00 | 87 | 1010.9 |
| 20260507065622 | 27 | 119 | 4.8 | 9.7 | 0.00 | 0.00 | 0.00 | 87 | 1011.0 |
| 20260507065119 | 27 | 254 | 1.6 | 1.6 | 0.00 | 0.00 | 0.00 | 87 | 1011.1 |
| 20260507064617 | 27 | 37 | 12.9 | 16.1 | 0.00 | 0.00 | 0.00 | 87 | 1011.1 |
| 20260507064115 | 27 | 239 | 1.6 | 1.6 | 0.00 | 0.00 | 0.00 | 87 | 1011.2 |
| 20260507063612 | 27 | 296 | 4.8 | 6.4 | 0.00 | 0.00 | 0.00 | 87 | 1011.2 |
| 20260507063109 | 27 | 308 | 3.2 | 6.4 | 0.00 | 0.00 | 0.00 | 87 | 1011.2 |
| 20260507062606 | 27 | 139 | 6.4 | 6.4 | 0.00 | 0.00 | 0.00 | 87 | 1011.4 |
| 20260507062104 | 27 | 359 | 9.7 | 16.1 | 0.00 | 0.00 | 0.00 | 87 | 1011.3 |
| 20260507061601 | 27 | 75 | 3.2 | 3.2 | 0.00 | 0.00 | 0.00 | 87 | 1011.5 |
| 20260507061059 | 27 | 1 | 9.7 | 12.9 | 0.00 | 0.00 | 0.00 | 87 | 1011.4 |
| 20260507060557 | 27 | 81 | 3.2 | 4.8 | 0.00 | 0.00 | 0.00 | 88 | 1011.5 |
| 20260507060053 | 27 | 111 | 1.6 | 3.2 | 0.00 | 0.00 | 0.00 | 88 | 1011.6 |
| 20260507055548 | 27 | 41 | 4.8 | 6.4 | 0.00 | 0.00 | 0.00 | 87 | 1011.7 |
| 20260507055045 | 27 | 65 | 9.7 | 12.9 | 0.00 | 0.00 | 0.00 | 87 | 1011.8 |
| 20260507054541 | 27 | 73 | 6.4 | 14.5 | 0.00 | 0.00 | 0.00 | 87 | 1011.8 |
| 20260507054037 | 27 | 287 | 6.4 | 6.4 | 0.00 | 0.00 | 0.00 | 87 | 1011.6 |
| 20260507053536 | 27 | 38 | 14.5 | 22.5 | 0.00 | 0.00 | 0.00 | 86 | 1012.0 |
| 20260507053034 | 27 | 31 | 6.4 | 11.3 | 0.00 | 0.00 | 0.00 | 86 | 1012.0 |
| 20260507052532 | 28 | 52 | 6.4 | 9.7 | 0.00 | 0.00 | 0.00 | 86 | 1011.9 |
| 20260507052028 | 28 | 284 | 3.2 | 4.8 | 0.00 | 0.00 | 0.00 | 85 | 1012.2 |
| 20260507051526 | 28 | 223 | 6.4 | 9.7 | 0.00 | 0.00 | 0.00 | 85 | 1012.3 |
| 20260507051022 | 28 | 187 | 1.6 | 3.2 | 0.00 | 0.00 | 0.00 | 85 | 1012.3 |
| 20260507050519 | 28 | 98 | 4.8 | 6.4 | 0.00 | 0.00 | 0.00 | 85 | 1012.5 |
| 20260507050016 | 28 | 231 | 4.8 | 9.7 | 0.00 | 0.00 | 0.00 | 84 | 1012.7 |
| 20260507045512 | 28 | 134 | 1.6 | 1.6 | 0.00 | 0.00 | 0.00 | 84 | 1012.5 |
| 20260507045010 | 28 | 276 | 4.8 | 9.7 | 0.00 | 0.00 | 0.00 | 84 | 1012.5 |
| 20260507044506 | 28 | 60 | 8.0 | 12.9 | 0.00 | 0.00 | 0.00 | 84 | 1012.7 |
| 20260507044002 | 28 | 341 | 4.8 | 9.7 | 0.00 | 0.00 | 0.00 | 84 | 1012.5 |
| 20260507043459 | 28 | 313 | 11.3 | 12.9 | 0.00 | 0.00 | 0.00 | 84 | 1012.8 |
| 20260507042955 | 28 | 3 | 3.2 | 6.4 | 0.00 | 0.00 | 0.00 | 84 | 1012.7 |
| 20260507042452 | 28 | 342 | 8.0 | 12.9 | 0.00 | 0.00 | 0.00 | 84 | 1012.8 |
| 20260507041948 | 28 | 223 | 3.2 | 4.8 | 0.00 | 0.00 | 0.00 | 84 | 1012.9 |
| 20260507041445 | 28 | 135 | 3.2 | 4.8 | 0.00 | 0.00 | 0.00 | 84 | 1012.8 |
| 20260507040942 | 28 | 81 | 6.4 | 9.7 | 0.00 | 0.00 | 0.00 | 83 | 1013.0 |
| 20260507040437 | 28 | 230 | 1.6 | 3.2 | 0.00 | 0.00 | 0.00 | 84 | 1012.8 |
| 20260507035934 | 28 | 269 | 9.7 | 12.9 | 0.00 | 0.00 | 0.00 | 84 | 1013.0 |
| 20260507035430 | 28 | 310 | 3.2 | 3.2 | 0.00 | 0.00 | 0.00 | 85 | 1012.9 |
| 20260507034927 | 28 | 286 | 3.2 | 3.2 | 0.00 | 0.00 | 0.00 | 86 | 1012.7 |
| 20260507034424 | 28 | 292 | 6.4 | 9.7 | 0.00 | 0.00 | 0.00 | 86 | 1013.0 |
| 20260507033922 | 28 | 251 | 1.6 | 3.2 | 0.00 | 0.00 | 0.00 | 87 | 1013.0 |
| 20260507033420 | 28 | 52 | 11.3 | 16.1 | 0.00 | 0.00 | 0.00 | 87 | 1013.1 |
| 20260507032916 | 28 | 8 | 3.2 | 3.2 | 0.00 | 0.00 | 0.00 | 87 | 1013.1 |
| 20260507032414 | 28 | 216 | 1.6 | 1.6 | 0.00 | 0.00 | 0.00 | 87 | 1012.7 |
| 20260507031909 | 28 | 107 | 3.2 | 4.8 | 0.00 | 0.00 | 0.00 | 87 | 1012.8 |
| 20260507031406 | 28 | 217 | 1.6 | 4.8 | 0.00 | 0.00 | 0.00 | 86 | 1012.9 |
| 20260507030903 | 28 | 202 | 3.2 | 4.8 | 0.00 | 0.00 | 0.00 | 86 | 1012.7 |
| 20260507030400 | 28 | 329 | 3.2 | 4.8 | 0.00 | 0.00 | 0.00 | 86 | 1013.0 |
| 20260507025857 | 28 | 317 | 8.0 | 11.3 | 0.00 | 0.00 | 0.00 | 86 | 1013.0 |
| 20260507025354 | 28 | 290 | 4.8 | 6.4 | 0.00 | 0.00 | 0.00 | 86 | 1012.8 |
| 20260507024852 | 28 | 20 | 9.7 | 16.1 | 0.00 | 0.00 | 0.00 | 85 | 1012.8 |
| 20260507024349 | 28 | 249 | 1.6 | 3.2 | 0.00 | 0.00 | 0.00 | 85 | 1012.8 |
| 20260507023845 | 28 | 63 | 4.8 | 9.7 | 0.00 | 0.00 | 0.00 | 85 | 1012.7 |
| 20260507023342 | 28 | 259 | 8.0 | 11.3 | 0.00 | 0.00 | 0.00 | 85 | 1012.8 |
| 20260507022839 | 28 | 342 | 6.4 | 9.7 | 0.00 | 0.00 | 0.00 | 85 | 1012.6 |
| 20260507022336 | 28 | 340 | 3.2 | 4.8 | 0.00 | 0.00 | 0.00 | 85 | 1012.7 |
| 20260507021831 | 28 | 244 | 4.8 | 4.8 | 0.00 | 0.00 | 0.00 | 85 | 1012.6 |
| 20260507021327 | 28 | 243 | 3.2 | 4.8 | 0.00 | 0.00 | 0.00 | 85 | 1012.5 |
| 20260507020825 | 28 | 269 | 1.6 | 3.2 | 0.00 | 0.00 | 0.00 | 86 | 1012.5 |
| 20260507020322 | 28 | 1 | 6.4 | 6.4 | 0.00 | 0.00 | 0.00 | 86 | 1012.4 |
| 20260507015819 | 28 | 131 | 6.4 | 11.3 | 0.00 | 0.00 | 0.00 | 86 | 1012.5 |
| 20260507015317 | 28 | 279 | 6.4 | 6.4 | 0.00 | 0.00 | 0.00 | 86 | 1012.3 |
| 20260507014813 | 28 | 45 | 3.2 | 4.8 | 0.00 | 0.00 | 0.00 | 86 | 1012.3 |
| 20260507014310 | 28 | 346 | 8.0 | 12.9 | 0.00 | 0.00 | 0.00 | 86 | 1012.4 |
| 20260507013806 | 28 | 331 | 14.5 | 16.1 | 0.00 | 0.00 | 0.00 | 86 | 1012.3 |
| 20260507013303 | 28 | 23 | 3.2 | 4.8 | 0.00 | 0.00 | 0.00 | 86 | 1012.4 |
| 20260507012801 | 28 | 283 | 1.6 | 4.8 | 0.00 | 0.00 | 0.00 | 86 | 1012.2 |
| 20260507012256 | 28 | 168 | 9.7 | 11.3 | 0.00 | 0.00 | 0.00 | 85 | 1012.3 |
| 20260507011754 | 28 | 288 | 8.0 | 12.9 | 0.00 | 0.00 | 0.00 | 85 | 1012.1 |
| 20260507011250 | 28 | 45 | 1.6 | 1.6 | 0.00 | 0.00 | 0.00 | 84 | 1011.9 |
| 20260507010750 | 28 | 219 | 8.0 | 14.5 | 0.00 | 0.00 | 0.00 | 84 | 1011.8 |
| 20260507010246 | 28 | 123 | 1.6 | 1.6 | 0.00 | 0.00 | 0.00 | 84 | 1011.9 |
| 20260507005744 | 28 | 45 | 3.2 | 4.8 | 0.00 | 0.00 | 0.00 | 84 | 1011.8 |
| 20260507005240 | 28 | 241 | 0.0 | 1.6 | 0.00 | 0.00 | 0.00 | 84 | 1011.8 |
| 20260507004736 | 28 | 115 | 1.6 | 1.6 | 0.00 | 0.00 | 0.00 | 84 | 1011.6 |
| 20260507004235 | 28 | 305 | 8.0 | 12.9 | 0.00 | 0.00 | 0.00 | 84 | 1011.5 |
| 20260507003730 | 28 | 2 | 1.6 | 3.2 | 0.00 | 0.00 | 0.00 | 83 | 1011.5 |
| 20260507003226 | 28 | 249 | 3.2 | 4.8 | 0.00 | 0.00 | 0.00 | 83 | 1011.4 |
| 20260507002722 | 28 | 221 | 3.2 | 6.4 | 0.00 | 0.00 | 0.00 | 82 | 1011.6 |
| 20260507002218 | 28 | 347 | 3.2 | 3.2 | 0.00 | 0.00 | 0.00 | 82 | 1011.2 |
| 20260507001715 | 28 | 307 | 1.6 | 3.2 | 0.00 | 0.00 | 0.00 | 81 | 1011.4 |
| 20260507001212 | 28 | 287 | 4.8 | 9.7 | 0.00 | 0.00 | 0.00 | 81 | 1011.5 |
| 20260507000708 | 28 | 118 | 3.2 | 4.8 | 0.00 | 0.00 | 0.00 | 80 | 1011.3 |
| 20260507000205 | 28 | 202 | 1.6 | 3.2 | 0.00 | 0.00 | 0.00 | 81 | 1011.2 |
| 20260506235702 | 28 | 80 | 6.4 | 9.7 | 0.00 | 0.00 | 0.00 | 81 | 1011.3 |
| 20260506235157 | 28 | 67 | 1.6 | 3.2 | 0.00 | 0.00 | 0.00 | 80 | 1011.2 |
| 20260506234654 | 28 | 208 | 6.4 | 11.3 | 0.00 | 0.00 | 0.00 | 80 | 1011.2 |
| 20260506234151 | 28 | 206 | 1.6 | 3.2 | 0.00 | 0.00 | 0.00 | 80 | 1011.1 |
| 20260506233648 | 29 | 168 | 4.8 | 11.3 | 0.00 | 0.00 | 0.00 | 79 | 1011.1 |
| 20260506233145 | 28 | 41 | 6.4 | 6.4 | 0.00 | 0.00 | 0.00 | 80 | 1011.0 |
| 20260506232641 | 29 | 130 | 4.8 | 4.8 | 0.00 | 0.00 | 0.00 | 79 | 1011.0 |
| 20260506232137 | 29 | 297 | 6.4 | 9.7 | 0.00 | 0.00 | 0.00 | 79 | 1010.9 |
| 20260506231634 | 29 | 242 | 1.6 | 3.2 | 0.00 | 0.00 | 0.00 | 78 | 1011.0 |
| 20260506231133 | 29 | 100 | 6.4 | 9.7 | 0.00 | 0.00 | 0.00 | 78 | 1010.9 |
| 20260506230629 | 30 | 293 | 3.2 | 4.8 | 0.00 | 0.00 | 0.00 | 78 | 1010.9 |
| 20260506230126 | 30 | 218 | 1.6 | 1.6 | 0.00 | 0.00 | 0.00 | 77 | 1011.0 |
| 20260506225622 | 30 | 236 | 1.6 | 1.6 | 0.00 | 0.00 | 0.00 | 77 | 1011.0 |
| 20260506225119 | 30 | 241 | 3.2 | 3.2 | 0.00 | 0.00 | 0.00 | 76 | 1011.0 |
| 20260506224616 | 30 | 222 | 1.6 | 1.6 | 0.00 | 0.00 | 0.00 | 75 | 1010.8 |
| 20260506224112 | 30 | 72 | 1.6 | 3.2 | 0.00 | 0.00 | 0.00 | 76 | 1010.9 |
| 20260506223608 | 30 | 317 | 3.2 | 4.8 | 0.00 | 0.00 | 0.00 | 77 | 1011.1 |
| 20260506223105 | 30 | 257 | 1.6 | 1.6 | 0.00 | 0.00 | 0.00 | 76 | 1010.8 |
| 20260506222602 | 30 | 160 | 1.6 | 4.8 | 0.00 | 0.00 | 0.00 | 74 | 1010.8 |
| 20260506222058 | 31 | 347 | 9.7 | 16.1 | 0.00 | 0.00 | 0.00 | 74 | 1011.0 |
| 20260506221556 | 30 | 134 | 4.8 | 6.4 | 0.00 | 0.00 | 0.00 | 74 | 1010.9 |
| 20260506221054 | 30 | 235 | 0.0 | 0.0 | 0.00 | 0.00 | 0.00 | 74 | 1010.9 |
| 20260506220549 | 30 | 303 | 4.8 | 4.8 | 0.00 | 0.00 | 0.00 | 75 | 1011.0 |
| 20260506220045 | 30 | 129 | 8.0 | 11.3 | 0.00 | 0.00 | 0.00 | 75 | 1010.9 |
| 20260506215542 | 31 | 86 | 4.8 | 6.4 | 0.00 | 0.00 | 0.00 | 74 | 1010.7 |
| 20260506215037 | 30 | 252 | 1.6 | 1.6 | 0.00 | 0.00 | 0.00 | 74 | 1010.8 |
| 20260506214535 | 30 | 176 | 8.0 | 14.5 | 0.00 | 0.00 | 0.00 | 75 | 1010.8 |
| 20260506214032 | 30 | 306 | 9.7 | 11.3 | 0.00 | 0.00 | 0.00 | 76 | 1010.8 |
| 20260506213530 | 30 | 251 | 1.6 | 4.8 | 0.00 | 0.00 | 0.00 | 75 | 1010.7 |
| 20260506213027 | 31 | 244 | 12.9 | 20.9 | 0.00 | 0.00 | 0.00 | 74 | 1010.8 |
| 20260506212524 | 30 | 352 | 3.2 | 6.4 | 0.00 | 0.00 | 0.00 | 75 | 1010.8 |
| 20260506212019 | 30 | 263 | 4.8 | 4.8 | 0.00 | 0.00 | 0.00 | 75 | 1010.8 |
| 20260506211515 | 30 | 339 | 3.2 | 9.7 | 0.00 | 0.00 | 0.00 | 75 | 1010.8 |
| 20260506211013 | 30 | 349 | 8.0 | 17.7 | 0.00 | 0.00 | 0.00 | 74 | 1010.9 |
| 20260506210508 | 30 | 240 | 4.8 | 6.4 | 0.00 | 0.00 | 0.00 | 74 | 1011.2 |
| 20260506210005 | 31 | 93 | 3.2 | 4.8 | 0.00 | 0.00 | 0.00 | 73 | 1011.1 |
| 20260506205502 | 31 | 238 | 9.7 | 14.5 | 0.00 | 0.00 | 0.00 | 72 | 1011.2 |
| 20260506204957 | 30 | 279 | 1.6 | 3.2 | 0.00 | 0.00 | 0.00 | 73 | 1011.1 |
| 20260506204456 | 31 | 241 | 3.2 | 4.8 | 0.00 | 0.00 | 0.00 | 72 | 1011.2 |
| 20260506203953 | 31 | 351 | 8.0 | 12.9 | 0.00 | 0.00 | 0.00 | 71 | 1011.2 |
| 20260506203450 | 31 | 211 | 3.2 | 4.8 | 0.00 | 0.00 | 0.00 | 71 | 1011.3 |
| 20260506202947 | 31 | 16 | 6.4 | 11.3 | 0.00 | 0.00 | 0.00 | 69 | 1011.4 |
| 20260506202444 | 31 | 322 | 9.7 | 11.3 | 0.00 | 0.00 | 0.00 | 70 | 1011.2 |
| 20260506201940 | 31 | 300 | 4.8 | 6.4 | 0.00 | 0.00 | 0.00 | 69 | 1011.3 |
| 20260506201438 | 31 | 94 | 6.4 | 11.3 | 0.00 | 0.00 | 0.00 | 69 | 1011.3 |
| 20260506200934 | 31 | 44 | 4.8 | 6.4 | 0.00 | 0.00 | 0.00 | 68 | 1011.4 |
| 20260506200431 | 31 | 58 | 0.0 | 1.6 | 0.00 | 0.00 | 0.00 | 67 | 1011.5 |
| 20260506195927 | 31 | 91 | 3.2 | 3.2 | 0.00 | 0.00 | 0.00 | 66 | 1011.6 |
| 20260506195424 | 31 | 233 | 20.9 | 29.0 | 0.00 | 0.00 | 0.00 | 66 | 1011.5 |
| 20260506194921 | 31 | 316 | 3.2 | 4.8 | 0.00 | 0.00 | 0.00 | 67 | 1011.8 |
| 20260506194418 | 31 | 289 | 3.2 | 4.8 | 0.00 | 0.00 | 0.00 | 67 | 1011.9 |
| 20260506193915 | 31 | 117 | 4.8 | 6.4 | 0.00 | 0.00 | 0.00 | 67 | 1011.9 |
| 20260506193412 | 31 | 200 | 9.7 | 14.5 | 0.00 | 0.00 | 0.00 | 66 | 1011.6 |
| 20260506192908 | 31 | 346 | 14.5 | 20.9 | 0.00 | 0.00 | 0.00 | 66 | 1011.9 |
| 20260506192405 | 31 | 6 | 4.8 | 11.3 | 0.00 | 0.00 | 0.00 | 66 | 1011.9 |
| 20260506191902 | 31 | 331 | 6.4 | 11.3 | 0.00 | 0.00 | 0.00 | 67 | 1011.8 |
| 20260506191358 | 31 | 239 | 9.7 | 14.5 | 0.00 | 0.00 | 0.00 | 68 | 1012.1 |
| 20260506190855 | 31 | 176 | 6.4 | 11.3 | 0.00 | 0.00 | 0.00 | 67 | 1012.1 |
| 20260506190352 | 31 | 293 | 6.4 | 9.7 | 0.00 | 0.00 | 0.00 | 68 | 1012.1 |
| 20260506185849 | 31 | 42 | 3.2 | 4.8 | 0.00 | 0.00 | 0.00 | 67 | 1012.2 |
| 20260506185346 | 31 | 355 | 6.4 | 11.3 | 0.00 | 0.00 | 0.00 | 67 | 1012.4 |
| 20260506184843 | 31 | 344 | 3.2 | 4.8 | 0.00 | 0.00 | 0.00 | 68 | 1012.4 |
| 20260506184340 | 31 | 313 | 1.6 | 3.2 | 0.00 | 0.00 | 0.00 | 67 | 1012.7 |
| 20260506183837 | 31 | 53 | 12.9 | 16.1 | 0.00 | 0.00 | 0.00 | 65 | 1012.7 |
| 20260506183332 | 31 | 296 | 14.5 | 20.9 | 0.00 | 0.00 | 0.00 | 65 | 1012.6 |
| 20260506182830 | 31 | 82 | 6.4 | 11.3 | 0.00 | 0.00 | 0.00 | 66 | 1012.6 |
| 20260506182327 | 31 | 262 | 4.8 | 6.4 | 0.00 | 0.00 | 0.00 | 66 | 1013.0 |
| 20260506181825 | 31 | 161 | 3.2 | 6.4 | 0.00 | 0.00 | 0.00 | 67 | 1013.0 |
| 20260506181322 | 31 | 37 | 1.6 | 3.2 | 0.00 | 0.00 | 0.00 | 67 | 1013.2 |
| 20260506180819 | 31 | 329 | 6.4 | 12.9 | 0.00 | 0.00 | 0.00 | 67 | 1013.1 |
| 20260506180315 | 31 | 139 | 1.6 | 3.2 | 0.00 | 0.00 | 0.00 | 68 | 1013.3 |
| 20260506175812 | 31 | 334 | 4.8 | 11.3 | 0.00 | 0.00 | 0.00 | 68 | 1013.1 |
| 20260506175308 | 31 | 323 | 6.4 | 9.7 | 0.00 | 0.00 | 0.00 | 68 | 1013.2 |
| 20260506174806 | 31 | 305 | 6.4 | 11.3 | 0.00 | 0.00 | 0.00 | 68 | 1013.3 |
| 20260506174303 | 31 | 113 | 6.4 | 11.3 | 0.00 | 0.00 | 0.00 | 70 | 1013.5 |
| 20260506173801 | 31 | 36 | 8.0 | 12.9 | 0.00 | 0.00 | 0.00 | 70 | 1013.5 |
| 20260506173257 | 31 | 273 | 8.0 | 20.9 | 0.00 | 0.00 | 0.00 | 71 | 1013.5 |
| 20260506172754 | 30 | 49 | 6.4 | 11.3 | 0.00 | 0.00 | 0.00 | 73 | 1013.5 |
| 20260506172251 | 30 | 305 | 6.4 | 11.3 | 0.00 | 0.00 | 0.00 | 72 | 1013.5 |
| 20260506171748 | 30 | 81 | 6.4 | 9.7 | 0.00 | 0.00 | 0.00 | 73 | 1013.4 |
| 20260506171245 | 30 | 310 | 6.4 | 6.4 | 0.00 | 0.00 | 0.00 | 73 | 1013.5 |
| 20260506170743 | 30 | 359 | 11.3 | 12.9 | 0.00 | 0.00 | 0.00 | 73 | 1013.7 |
| 20260506170239 | 30 | 336 | 6.4 | 11.3 | 0.00 | 0.00 | 0.00 | 73 | 1013.7 |
| 20260506165738 | 30 | 358 | 9.7 | 14.5 | 0.00 | 0.00 | 0.00 | 73 | 1013.5 |
| 20260506165235 | 30 | 322 | 9.7 | 11.3 | 0.00 | 0.00 | 0.00 | 73 | 1013.8 |
| 20260506164732 | 31 | 290 | 6.4 | 6.4 | 0.00 | 0.00 | 0.00 | 73 | 1013.8 |
| 20260506164229 | 30 | 225 | 8.0 | 11.3 | 0.00 | 0.00 | 0.00 | 74 | 1013.9 |
| 20260506163725 | 30 | 336 | 8.0 | 11.3 | 0.00 | 0.00 | 0.00 | 74 | 1013.8 |
| 20260506163220 | 30 | 137 | 3.2 | 4.8 | 0.00 | 0.00 | 0.00 | 74 | 1013.9 |
| 20260506162717 | 30 | 325 | 8.0 | 9.7 | 0.00 | 0.00 | 0.00 | 74 | 1013.9 |
| 20260506162214 | 30 | 333 | 9.7 | 11.3 | 0.00 | 0.00 | 0.00 | 75 | 1013.8 |
| 20260506161711 | 30 | 225 | 6.4 | 9.7 | 0.00 | 0.00 | 0.00 | 76 | 1014.0 |
| 20260506161209 | 30 | 53 | 9.7 | 14.5 | 0.00 | 0.00 | 0.00 | 76 | 1013.8 |
| 20260506160706 | 30 | 324 | 9.7 | 16.1 | 0.00 | 0.00 | 0.00 | 76 | 1013.9 |
| 20260506160202 | 30 | 159 | 4.8 | 6.4 | 0.00 | 0.00 | 0.00 | 75 | 1014.0 |
| 20260506155700 | 30 | 339 | 3.2 | 6.4 | 0.00 | 0.00 | 0.00 | 75 | 1013.9 |
| 20260506155158 | 30 | 7 | 11.3 | 14.5 | 0.00 | 0.00 | 0.00 | 75 | 1014.1 |